sensor_id;sensor_type;location;lat;lon;timestamp;P1;durP1;ratioP1;P2;durP2;ratioP2
72319;SDS011;60269;52.502;16.732;2022-12-05T00:02:46;54.47;;;16.63;;
72319;SDS011;60269;52.502;16.732;2022-12-05T00:06:19;62.10;;;18.50;;
72319;SDS011;60269;52.502;16.732;2022-12-05T00:09:51;42.58;;;15.57;;
72319;SDS011;60269;52.502;16.732;2022-12-05T00:13:23;49.40;;;15.60;;
72319;SDS011;60269;52.502;16.732;2022-12-05T00:16:55;53.72;;;16.00;;
72319;SDS011;60269;52.502;16.732;2022-12-05T00:20:27;65.22;;;19.20;;
72319;SDS011;60269;52.502;16.732;2022-12-05T00:23:59;47.72;;;15.23;;
72319;SDS011;60269;52.502;16.732;2022-12-05T00:27:32;56.70;;;14.90;;
72319;SDS011;60269;52.502;16.732;2022-12-05T00:31:05;51.33;;;15.82;;
72319;SDS011;60269;52.502;16.732;2022-12-05T00:34:39;60.00;;;17.23;;
72319;SDS011;60269;52.502;16.732;2022-12-05T00:38:10;57.50;;;16.83;;
72319;SDS011;60269;52.502;16.732;2022-12-05T00:41:42;48.28;;;15.18;;
72319;SDS011;60269;52.502;16.732;2022-12-05T00:45:14;59.30;;;16.95;;
72319;SDS011;60269;52.502;16.732;2022-12-05T00:48:46;46.13;;;16.00;;
72319;SDS011;60269;52.502;16.732;2022-12-05T00:52:18;51.33;;;15.07;;
72319;SDS011;60269;52.502;16.732;2022-12-05T00:55:50;49.10;;;14.70;;
72319;SDS011;60269;52.502;16.732;2022-12-05T00:59:22;53.50;;;17.00;;
72319;SDS011;60269;52.502;16.732;2022-12-05T01:02:54;49.77;;;16.07;;
72319;SDS011;60269;52.502;16.732;2022-12-05T01:06:26;54.13;;;15.85;;
72319;SDS011;60269;52.502;16.732;2022-12-05T01:09:59;46.92;;;15.30;;
72319;SDS011;60269;52.502;16.732;2022-12-05T01:13:31;44.77;;;14.13;;
72319;SDS011;60269;52.502;16.732;2022-12-05T01:17:03;53.72;;;14.90;;
72319;SDS011;60269;52.502;16.732;2022-12-05T01:20:38;53.83;;;15.23;;
72319;SDS011;60269;52.502;16.732;2022-12-05T01:24:11;54.23;;;16.83;;
72319;SDS011;60269;52.502;16.732;2022-12-05T01:27:43;53.08;;;15.82;;
72319;SDS011;60269;52.502;16.732;2022-12-05T01:31:21;53.80;;;16.83;;
72319;SDS011;60269;52.502;16.732;2022-12-05T01:34:54;57.03;;;15.93;;
72319;SDS011;60269;52.502;16.732;2022-12-05T01:38:26;58.80;;;16.73;;
72319;SDS011;60269;52.502;16.732;2022-12-05T01:41:58;60.58;;;17.85;;
72319;SDS011;60269;52.502;16.732;2022-12-05T01:45:31;48.97;;;15.35;;
72319;SDS011;60269;52.502;16.732;2022-12-05T01:49:09;63.90;;;17.77;;
72319;SDS011;60269;52.502;16.732;2022-12-05T01:52:44;52.08;;;15.75;;
72319;SDS011;60269;52.502;16.732;2022-12-05T01:56:16;60.47;;;18.02;;
72319;SDS011;60269;52.502;16.732;2022-12-05T01:59:51;54.43;;;15.57;;
72319;SDS011;60269;52.502;16.732;2022-12-05T02:03:24;50.50;;;16.08;;
72319;SDS011;60269;52.502;16.732;2022-12-05T02:06:56;54.25;;;17.35;;
72319;SDS011;60269;52.502;16.732;2022-12-05T02:10:29;59.13;;;17.73;;
72319;SDS011;60269;52.502;16.732;2022-12-05T02:14:20;55.83;;;16.63;;
72319;SDS011;60269;52.502;16.732;2022-12-05T02:18:37;48.60;;;15.40;;
72319;SDS011;60269;52.502;16.732;2022-12-05T02:25:48;39.70;;;12.87;;
72319;SDS011;60269;52.502;16.732;2022-12-05T02:29:47;53.88;;;15.38;;
72319;SDS011;60269;52.502;16.732;2022-12-05T02:33:36;49.20;;;14.30;;
72319;SDS011;60269;52.502;16.732;2022-12-05T02:37:22;54.50;;;15.47;;
72319;SDS011;60269;52.502;16.732;2022-12-05T02:44:56;73.20;;;15.90;;
72319;SDS011;60269;52.502;16.732;2022-12-05T02:48:32;46.25;;;15.13;;
72319;SDS011;60269;52.502;16.732;2022-12-05T02:52:09;43.57;;;14.43;;
72319;SDS011;60269;52.502;16.732;2022-12-05T02:55:43;43.25;;;15.18;;
72319;SDS011;60269;52.502;16.732;2022-12-05T02:59:16;49.63;;;14.63;;
72319;SDS011;60269;52.502;16.732;2022-12-05T03:02:55;39.60;;;12.40;;
72319;SDS011;60269;52.502;16.732;2022-12-05T03:10:24;49.28;;;15.40;;
72319;SDS011;60269;52.502;16.732;2022-12-05T03:14:01;44.30;;;14.27;;
72319;SDS011;60269;52.502;16.732;2022-12-05T03:17:39;37.60;;;12.23;;
72319;SDS011;60269;52.502;16.732;2022-12-05T03:21:26;51.63;;;16.25;;
72319;SDS011;60269;52.502;16.732;2022-12-05T03:25:05;48.78;;;14.90;;
72319;SDS011;60269;52.502;16.732;2022-12-05T03:33:02;52.80;;;15.43;;
72319;SDS011;60269;52.502;16.732;2022-12-05T03:36:37;49.88;;;12.95;;
72319;SDS011;60269;52.502;16.732;2022-12-05T03:43:45;47.47;;;12.98;;
72319;SDS011;60269;52.502;16.732;2022-12-05T03:47:20;41.70;;;13.60;;
72319;SDS011;60269;52.502;16.732;2022-12-05T03:51:00;42.90;;;15.20;;
72319;SDS011;60269;52.502;16.732;2022-12-05T03:54:38;40.40;;;14.77;;
72319;SDS011;60269;52.502;16.732;2022-12-05T03:58:16;47.45;;;13.93;;
72319;SDS011;60269;52.502;16.732;2022-12-05T04:01:56;40.80;;;12.80;;
72319;SDS011;60269;52.502;16.732;2022-12-05T04:05:41;47.77;;;13.87;;
72319;SDS011;60269;52.502;16.732;2022-12-05T04:09:16;53.95;;;16.73;;
72319;SDS011;60269;52.502;16.732;2022-12-05T04:12:54;44.05;;;14.68;;
72319;SDS011;60269;52.502;16.732;2022-12-05T04:16:30;35.40;;;13.73;;
72319;SDS011;60269;52.502;16.732;2022-12-05T04:20:36;46.75;;;14.05;;
72319;SDS011;60269;52.502;16.732;2022-12-05T04:24:29;44.53;;;13.48;;
72319;SDS011;60269;52.502;16.732;2022-12-05T04:28:35;51.00;;;15.77;;
72319;SDS011;60269;52.502;16.732;2022-12-05T04:32:12;51.80;;;14.13;;
72319;SDS011;60269;52.502;16.732;2022-12-05T04:35:48;49.28;;;16.10;;
72319;SDS011;60269;52.502;16.732;2022-12-05T04:39:29;54.05;;;15.52;;
72319;SDS011;60269;52.502;16.732;2022-12-05T04:43:07;37.17;;;13.30;;
72319;SDS011;60269;52.502;16.732;2022-12-05T04:46:41;37.35;;;12.23;;
72319;SDS011;60269;52.502;16.732;2022-12-05T04:50:15;38.95;;;12.65;;
72319;SDS011;60269;52.502;16.732;2022-12-05T04:53:51;47.50;;;12.60;;
72319;SDS011;60269;52.502;16.732;2022-12-05T04:57:28;45.83;;;14.15;;
72319;SDS011;60269;52.502;16.732;2022-12-05T05:01:05;43.58;;;14.20;;
72319;SDS011;60269;52.502;16.732;2022-12-05T05:04:40;39.07;;;13.20;;
72319;SDS011;60269;52.502;16.732;2022-12-05T05:08:17;48.30;;;14.82;;
72319;SDS011;60269;52.502;16.732;2022-12-05T05:11:53;38.92;;;13.00;;
72319;SDS011;60269;52.502;16.732;2022-12-05T05:15:25;39.08;;;13.68;;
72319;SDS011;60269;52.502;16.732;2022-12-05T05:18:57;38.17;;;12.93;;
72319;SDS011;60269;52.502;16.732;2022-12-05T05:22:29;43.58;;;14.95;;
72319;SDS011;60269;52.502;16.732;2022-12-05T05:26:01;62.17;;;17.55;;
72319;SDS011;60269;52.502;16.732;2022-12-05T05:29:33;48.60;;;15.83;;
72319;SDS011;60269;52.502;16.732;2022-12-05T05:33:05;57.45;;;17.75;;
72319;SDS011;60269;52.502;16.732;2022-12-05T05:36:37;47.47;;;15.75;;
72319;SDS011;60269;52.502;16.732;2022-12-05T05:40:10;63.40;;;17.57;;
72319;SDS011;60269;52.502;16.732;2022-12-05T05:43:44;45.33;;;14.40;;
72319;SDS011;60269;52.502;16.732;2022-12-05T05:47:16;51.55;;;15.65;;
72319;SDS011;60269;52.502;16.732;2022-12-05T05:50:48;43.65;;;14.57;;
72319;SDS011;60269;52.502;16.732;2022-12-05T05:54:20;50.63;;;14.67;;
72319;SDS011;60269;52.502;16.732;2022-12-05T05:57:52;49.65;;;15.23;;
72319;SDS011;60269;52.502;16.732;2022-12-05T06:01:24;45.20;;;14.18;;
72319;SDS011;60269;52.502;16.732;2022-12-05T06:04:56;42.33;;;14.83;;
72319;SDS011;60269;52.502;16.732;2022-12-05T06:08:29;43.17;;;14.00;;
72319;SDS011;60269;52.502;16.732;2022-12-05T06:12:01;45.13;;;13.90;;
72319;SDS011;60269;52.502;16.732;2022-12-05T06:15:33;37.53;;;12.20;;
72319;SDS011;60269;52.502;16.732;2022-12-05T06:19:05;38.72;;;13.55;;
72319;SDS011;60269;52.502;16.732;2022-12-05T06:22:37;40.30;;;13.60;;
72319;SDS011;60269;52.502;16.732;2022-12-05T06:26:10;41.40;;;12.63;;
72319;SDS011;60269;52.502;16.732;2022-12-05T06:29:44;52.13;;;13.77;;
72319;SDS011;60269;52.502;16.732;2022-12-05T06:33:15;40.65;;;13.90;;
72319;SDS011;60269;52.502;16.732;2022-12-05T06:36:48;42.38;;;13.73;;
72319;SDS011;60269;52.502;16.732;2022-12-05T06:40:20;38.93;;;12.13;;
72319;SDS011;60269;52.502;16.732;2022-12-05T06:43:53;51.88;;;15.43;;
72319;SDS011;60269;52.502;16.732;2022-12-05T06:47:32;50.90;;;16.08;;
72319;SDS011;60269;52.502;16.732;2022-12-05T06:51:04;44.63;;;14.90;;
72319;SDS011;60269;52.502;16.732;2022-12-05T06:54:38;53.15;;;17.50;;
72319;SDS011;60269;52.502;16.732;2022-12-05T06:58:13;52.25;;;14.95;;
72319;SDS011;60269;52.502;16.732;2022-12-05T07:01:45;49.05;;;14.43;;
72319;SDS011;60269;52.502;16.732;2022-12-05T07:05:17;49.73;;;15.43;;
72319;SDS011;60269;52.502;16.732;2022-12-05T07:08:49;51.17;;;14.55;;
72319;SDS011;60269;52.502;16.732;2022-12-05T07:12:21;65.10;;;17.63;;
72319;SDS011;60269;52.502;16.732;2022-12-05T07:15:53;62.67;;;18.33;;
72319;SDS011;60269;52.502;16.732;2022-12-05T07:19:25;60.60;;;17.30;;
72319;SDS011;60269;52.502;16.732;2022-12-05T07:22:57;54.25;;;16.35;;
72319;SDS011;60269;52.502;16.732;2022-12-05T07:26:29;44.53;;;14.33;;
72319;SDS011;60269;52.502;16.732;2022-12-05T07:30:01;49.47;;;15.32;;
72319;SDS011;60269;52.502;16.732;2022-12-05T07:33:34;52.28;;;16.08;;
72319;SDS011;60269;52.502;16.732;2022-12-05T07:37:06;55.58;;;17.40;;
72319;SDS011;60269;52.502;16.732;2022-12-05T07:40:38;49.47;;;15.07;;
72319;SDS011;60269;52.502;16.732;2022-12-05T07:44:11;51.58;;;16.45;;
72319;SDS011;60269;52.502;16.732;2022-12-05T07:47:43;58.28;;;16.45;;
72319;SDS011;60269;52.502;16.732;2022-12-05T07:51:15;56.30;;;16.33;;
72319;SDS011;60269;52.502;16.732;2022-12-05T07:54:48;51.75;;;15.68;;
72319;SDS011;60269;52.502;16.732;2022-12-05T07:58:19;47.80;;;14.05;;
72319;SDS011;60269;52.502;16.732;2022-12-05T08:01:52;54.17;;;16.07;;
72319;SDS011;60269;52.502;16.732;2022-12-05T08:05:23;48.10;;;15.85;;
72319;SDS011;60269;52.502;16.732;2022-12-05T08:08:56;48.63;;;15.30;;
72319;SDS011;60269;52.502;16.732;2022-12-05T08:12:28;63.42;;;24.42;;
72319;SDS011;60269;52.502;16.732;2022-12-05T08:16:02;49.50;;;17.03;;
72319;SDS011;60269;52.502;16.732;2022-12-05T08:19:36;46.33;;;16.25;;
72319;SDS011;60269;52.502;16.732;2022-12-05T08:23:08;48.28;;;15.98;;
72319;SDS011;60269;52.502;16.732;2022-12-05T08:26:39;58.87;;;15.67;;
72319;SDS011;60269;52.502;16.732;2022-12-05T08:30:12;47.90;;;15.55;;
72319;SDS011;60269;52.502;16.732;2022-12-05T08:33:44;71.38;;;19.75;;
72319;SDS011;60269;52.502;16.732;2022-12-05T08:37:16;52.77;;;16.80;;
72319;SDS011;60269;52.502;16.732;2022-12-05T08:40:49;55.22;;;16.60;;
72319;SDS011;60269;52.502;16.732;2022-12-05T08:44:21;69.15;;;20.10;;
72319;SDS011;60269;52.502;16.732;2022-12-05T08:47:53;50.45;;;15.65;;
72319;SDS011;60269;52.502;16.732;2022-12-05T08:51:25;58.73;;;17.93;;
72319;SDS011;60269;52.502;16.732;2022-12-05T08:54:57;53.40;;;17.75;;
72319;SDS011;60269;52.502;16.732;2022-12-05T08:58:29;51.03;;;16.17;;
72319;SDS011;60269;52.502;16.732;2022-12-05T09:02:01;54.70;;;17.80;;
72319;SDS011;60269;52.502;16.732;2022-12-05T09:05:33;49.72;;;16.38;;
72319;SDS011;60269;52.502;16.732;2022-12-05T09:09:05;48.85;;;15.38;;
72319;SDS011;60269;52.502;16.732;2022-12-05T09:12:38;68.30;;;20.13;;
72319;SDS011;60269;52.502;16.732;2022-12-05T09:16:11;56.42;;;17.02;;
72319;SDS011;60269;52.502;16.732;2022-12-05T09:19:45;51.97;;;16.95;;
72319;SDS011;60269;52.502;16.732;2022-12-05T09:23:21;62.88;;;18.38;;
72319;SDS011;60269;52.502;16.732;2022-12-05T09:26:53;65.40;;;20.30;;
72319;SDS011;60269;52.502;16.732;2022-12-05T09:30:24;83.85;;;24.17;;
72319;SDS011;60269;52.502;16.732;2022-12-05T09:33:56;43.75;;;14.30;;
72319;SDS011;60269;52.502;16.732;2022-12-05T09:37:28;41.47;;;14.13;;
72319;SDS011;60269;52.502;16.732;2022-12-05T09:45:23;50.28;;;17.42;;
72319;SDS011;60269;52.502;16.732;2022-12-05T09:49:01;56.53;;;16.70;;
72319;SDS011;60269;52.502;16.732;2022-12-05T09:52:36;46.15;;;16.23;;
72319;SDS011;60269;52.502;16.732;2022-12-05T09:56:31;57.35;;;18.27;;
72319;SDS011;60269;52.502;16.732;2022-12-05T10:00:03;45.25;;;15.52;;
72319;SDS011;60269;52.502;16.732;2022-12-05T10:03:44;47.53;;;15.37;;
72319;SDS011;60269;52.502;16.732;2022-12-05T10:15:32;51.47;;;17.50;;
72319;SDS011;60269;52.502;16.732;2022-12-05T10:19:10;52.13;;;16.05;;
72319;SDS011;60269;52.502;16.732;2022-12-05T10:22:55;51.65;;;17.70;;
72319;SDS011;60269;52.502;16.732;2022-12-05T10:26:36;46.70;;;16.20;;
72319;SDS011;60269;52.502;16.732;2022-12-05T10:30:16;50.80;;;17.90;;
72319;SDS011;60269;52.502;16.732;2022-12-05T10:33:57;58.95;;;18.38;;
72319;SDS011;60269;52.502;16.732;2022-12-05T10:37:34;69.40;;;20.40;;
72319;SDS011;60269;52.502;16.732;2022-12-05T10:41:07;58.60;;;19.00;;
72319;SDS011;60269;52.502;16.732;2022-12-05T10:44:42;68.88;;;23.27;;
72319;SDS011;60269;52.502;16.732;2022-12-05T10:48:16;91.45;;;24.42;;
72319;SDS011;60269;52.502;16.732;2022-12-05T10:51:49;78.10;;;24.57;;
72319;SDS011;60269;52.502;16.732;2022-12-05T10:55:22;86.07;;;25.48;;
72319;SDS011;60269;52.502;16.732;2022-12-05T10:59:00;62.95;;;19.52;;
72319;SDS011;60269;52.502;16.732;2022-12-05T11:02:32;64.60;;;21.57;;
72319;SDS011;60269;52.502;16.732;2022-12-05T11:06:15;55.75;;;19.15;;
72319;SDS011;60269;52.502;16.732;2022-12-05T11:09:49;54.17;;;17.73;;
72319;SDS011;60269;52.502;16.732;2022-12-05T11:13:23;55.15;;;18.90;;
72319;SDS011;60269;52.502;16.732;2022-12-05T11:16:57;47.90;;;16.77;;
72319;SDS011;60269;52.502;16.732;2022-12-05T11:24:19;49.20;;;17.85;;
72319;SDS011;60269;52.502;16.732;2022-12-05T11:27:51;48.77;;;17.20;;
72319;SDS011;60269;52.502;16.732;2022-12-05T11:31:30;53.97;;;18.77;;
72319;SDS011;60269;52.502;16.732;2022-12-05T11:38:44;54.77;;;19.00;;
72319;SDS011;60269;52.502;16.732;2022-12-05T11:50:12;56.72;;;18.98;;
72319;SDS011;60269;52.502;16.732;2022-12-05T11:57:49;46.30;;;16.10;;
72319;SDS011;60269;52.502;16.732;2022-12-05T12:05:49;56.47;;;19.60;;
72319;SDS011;60269;52.502;16.732;2022-12-05T12:17:24;47.90;;;16.70;;
72319;SDS011;60269;52.502;16.732;2022-12-05T12:21:07;58.78;;;20.23;;
72319;SDS011;60269;52.502;16.732;2022-12-05T12:24:54;59.85;;;20.30;;
72319;SDS011;60269;52.502;16.732;2022-12-05T12:32:34;55.73;;;16.70;;
72319;SDS011;60269;52.502;16.732;2022-12-05T12:36:41;57.08;;;19.13;;
72319;SDS011;60269;52.502;16.732;2022-12-05T12:40:26;101.82;;;32.55;;
72319;SDS011;60269;52.502;16.732;2022-12-05T12:48:14;61.78;;;22.55;;
72319;SDS011;60269;52.502;16.732;2022-12-05T12:51:51;56.38;;;18.73;;
72319;SDS011;60269;52.502;16.732;2022-12-05T13:10:40;58.17;;;19.77;;
72319;SDS011;60269;52.502;16.732;2022-12-05T13:14:17;62.05;;;19.90;;
72319;SDS011;60269;52.502;16.732;2022-12-05T13:17:55;50.85;;;17.80;;
72319;SDS011;60269;52.502;16.732;2022-12-05T13:21:27;57.90;;;20.63;;
72319;SDS011;60269;52.502;16.732;2022-12-05T13:25:00;58.75;;;20.23;;
72319;SDS011;60269;52.502;16.732;2022-12-05T13:28:39;60.75;;;19.50;;
72319;SDS011;60269;52.502;16.732;2022-12-05T13:32:34;59.57;;;20.87;;
72319;SDS011;60269;52.502;16.732;2022-12-05T13:36:08;56.78;;;19.70;;
72319;SDS011;60269;52.502;16.732;2022-12-05T13:40:01;62.20;;;19.75;;
72319;SDS011;60269;52.502;16.732;2022-12-05T13:43:53;61.38;;;18.95;;
72319;SDS011;60269;52.502;16.732;2022-12-05T13:51:29;67.30;;;23.05;;
72319;SDS011;60269;52.502;16.732;2022-12-05T13:55:22;56.38;;;19.55;;
72319;SDS011;60269;52.502;16.732;2022-12-05T13:59:06;52.57;;;17.73;;
72319;SDS011;60269;52.502;16.732;2022-12-05T14:10:06;81.20;;;26.00;;
72319;SDS011;60269;52.502;16.732;2022-12-05T14:13:39;110.22;;;31.00;;
72319;SDS011;60269;52.502;16.732;2022-12-05T14:17:12;78.93;;;26.00;;
72319;SDS011;60269;52.502;16.732;2022-12-05T14:20:46;71.32;;;25.10;;
72319;SDS011;60269;52.502;16.732;2022-12-05T14:28:18;55.90;;;19.55;;
72319;SDS011;60269;52.502;16.732;2022-12-05T14:32:02;54.40;;;17.08;;
72319;SDS011;60269;52.502;16.732;2022-12-05T14:35:51;56.60;;;18.53;;
72319;SDS011;60269;52.502;16.732;2022-12-05T14:39:45;52.60;;;18.85;;
72319;SDS011;60269;52.502;16.732;2022-12-05T14:43:31;59.35;;;19.20;;
72319;SDS011;60269;52.502;16.732;2022-12-05T14:47:06;65.17;;;21.27;;
72319;SDS011;60269;52.502;16.732;2022-12-05T14:50:48;64.28;;;22.52;;
72319;SDS011;60269;52.502;16.732;2022-12-05T14:54:22;58.55;;;18.95;;
72319;SDS011;60269;52.502;16.732;2022-12-05T14:57:56;53.25;;;16.73;;
72319;SDS011;60269;52.502;16.732;2022-12-05T15:01:32;58.10;;;18.33;;
72319;SDS011;60269;52.502;16.732;2022-12-05T15:08:58;47.25;;;17.63;;
72319;SDS011;60269;52.502;16.732;2022-12-05T15:12:56;53.87;;;18.50;;
72319;SDS011;60269;52.502;16.732;2022-12-05T15:16:33;55.25;;;18.35;;
72319;SDS011;60269;52.502;16.732;2022-12-05T15:20:13;56.88;;;19.00;;
72319;SDS011;60269;52.502;16.732;2022-12-05T15:23:58;49.40;;;16.87;;
72319;SDS011;60269;52.502;16.732;2022-12-05T15:27:35;49.95;;;17.30;;
72319;SDS011;60269;52.502;16.732;2022-12-05T15:31:08;47.35;;;16.90;;
72319;SDS011;60269;52.502;16.732;2022-12-05T15:34:59;52.13;;;17.90;;
72319;SDS011;60269;52.502;16.732;2022-12-05T15:38:35;52.37;;;17.40;;
72319;SDS011;60269;52.502;16.732;2022-12-05T15:42:08;54.15;;;16.80;;
72319;SDS011;60269;52.502;16.732;2022-12-05T15:45:45;48.42;;;18.02;;
72319;SDS011;60269;52.502;16.732;2022-12-05T15:49:24;57.80;;;18.97;;
72319;SDS011;60269;52.502;16.732;2022-12-05T15:57:02;50.60;;;16.83;;
72319;SDS011;60269;52.502;16.732;2022-12-05T16:00:41;46.70;;;18.00;;
72319;SDS011;60269;52.502;16.732;2022-12-05T16:08:02;51.47;;;18.77;;
72319;SDS011;60269;52.502;16.732;2022-12-05T16:11:35;56.33;;;18.98;;
72319;SDS011;60269;52.502;16.732;2022-12-05T16:15:10;53.30;;;17.70;;
72319;SDS011;60269;52.502;16.732;2022-12-05T16:18:47;50.05;;;18.83;;
72319;SDS011;60269;52.502;16.732;2022-12-05T16:22:30;56.08;;;17.98;;
72319;SDS011;60269;52.502;16.732;2022-12-05T16:26:20;55.37;;;17.97;;
72319;SDS011;60269;52.502;16.732;2022-12-05T16:33:57;55.65;;;18.63;;
72319;SDS011;60269;52.502;16.732;2022-12-05T16:37:30;51.23;;;18.37;;
72319;SDS011;60269;52.502;16.732;2022-12-05T16:41:03;60.35;;;20.50;;
72319;SDS011;60269;52.502;16.732;2022-12-05T16:44:51;56.58;;;19.48;;
72319;SDS011;60269;52.502;16.732;2022-12-05T16:48:33;65.55;;;21.10;;
72319;SDS011;60269;52.502;16.732;2022-12-05T16:52:10;59.33;;;19.97;;
72319;SDS011;60269;52.502;16.732;2022-12-05T16:55:44;67.47;;;22.67;;
72319;SDS011;60269;52.502;16.732;2022-12-05T16:59:29;70.03;;;25.23;;
72319;SDS011;60269;52.502;16.732;2022-12-05T17:03:03;58.67;;;20.60;;
72319;SDS011;60269;52.502;16.732;2022-12-05T17:06:56;58.95;;;21.63;;
72319;SDS011;60269;52.502;16.732;2022-12-05T17:10:28;62.88;;;19.63;;
72319;SDS011;60269;52.502;16.732;2022-12-05T17:14:00;63.33;;;22.07;;
72319;SDS011;60269;52.502;16.732;2022-12-05T17:17:33;68.70;;;22.88;;
72319;SDS011;60269;52.502;16.732;2022-12-05T17:21:05;71.53;;;22.42;;
72319;SDS011;60269;52.502;16.732;2022-12-05T17:24:37;60.30;;;22.15;;
72319;SDS011;60269;52.502;16.732;2022-12-05T17:28:09;67.57;;;23.53;;
72319;SDS011;60269;52.502;16.732;2022-12-05T17:31:40;80.28;;;24.00;;
72319;SDS011;60269;52.502;16.732;2022-12-05T17:35:16;64.35;;;21.55;;
72319;SDS011;60269;52.502;16.732;2022-12-05T17:38:51;60.23;;;20.73;;
72319;SDS011;60269;52.502;16.732;2022-12-05T17:42:23;71.10;;;21.88;;
72319;SDS011;60269;52.502;16.732;2022-12-05T17:46:00;67.63;;;22.48;;
72319;SDS011;60269;52.502;16.732;2022-12-05T17:49:34;64.47;;;22.53;;
72319;SDS011;60269;52.502;16.732;2022-12-05T17:53:07;62.80;;;21.75;;
72319;SDS011;60269;52.502;16.732;2022-12-05T17:56:43;66.10;;;21.35;;
72319;SDS011;60269;52.502;16.732;2022-12-05T18:00:15;66.80;;;23.80;;
72319;SDS011;60269;52.502;16.732;2022-12-05T18:03:49;74.83;;;21.97;;
72319;SDS011;60269;52.502;16.732;2022-12-05T18:07:21;79.15;;;24.55;;
72319;SDS011;60269;52.502;16.732;2022-12-05T18:10:54;86.97;;;24.63;;
72319;SDS011;60269;52.502;16.732;2022-12-05T18:14:26;75.67;;;23.57;;
72319;SDS011;60269;52.502;16.732;2022-12-05T18:17:59;76.75;;;23.55;;
72319;SDS011;60269;52.502;16.732;2022-12-05T18:21:33;84.65;;;25.02;;
72319;SDS011;60269;52.502;16.732;2022-12-05T18:25:05;87.37;;;25.27;;
72319;SDS011;60269;52.502;16.732;2022-12-05T18:28:37;77.28;;;22.90;;
72319;SDS011;60269;52.502;16.732;2022-12-05T18:32:10;92.85;;;27.80;;
72319;SDS011;60269;52.502;16.732;2022-12-05T18:35:42;98.40;;;26.33;;
72319;SDS011;60269;52.502;16.732;2022-12-05T18:39:14;83.80;;;25.97;;
72319;SDS011;60269;52.502;16.732;2022-12-05T18:42:47;93.25;;;27.20;;
72319;SDS011;60269;52.502;16.732;2022-12-05T18:46:20;90.78;;;27.33;;
72319;SDS011;60269;52.502;16.732;2022-12-05T18:49:52;89.63;;;25.73;;
72319;SDS011;60269;52.502;16.732;2022-12-05T18:53:24;90.82;;;26.25;;
72319;SDS011;60269;52.502;16.732;2022-12-05T18:56:55;86.13;;;27.35;;
72319;SDS011;60269;52.502;16.732;2022-12-05T19:00:27;88.13;;;26.53;;
72319;SDS011;60269;52.502;16.732;2022-12-05T19:04:00;94.20;;;28.67;;
72319;SDS011;60269;52.502;16.732;2022-12-05T19:07:33;96.85;;;27.02;;
72319;SDS011;60269;52.502;16.732;2022-12-05T19:11:05;87.30;;;26.42;;
72319;SDS011;60269;52.502;16.732;2022-12-05T19:14:41;97.20;;;28.13;;
72319;SDS011;60269;52.502;16.732;2022-12-05T19:18:12;93.55;;;27.15;;
72319;SDS011;60269;52.502;16.732;2022-12-05T19:21:44;88.45;;;27.20;;
72319;SDS011;60269;52.502;16.732;2022-12-05T19:25:18;92.30;;;28.20;;
72319;SDS011;60269;52.502;16.732;2022-12-05T19:28:50;81.00;;;26.75;;
72319;SDS011;60269;52.502;16.732;2022-12-05T19:32:22;81.80;;;26.52;;
72319;SDS011;60269;52.502;16.732;2022-12-05T19:35:55;93.50;;;28.13;;
72319;SDS011;60269;52.502;16.732;2022-12-05T19:39:26;96.00;;;28.42;;
72319;SDS011;60269;52.502;16.732;2022-12-05T19:43:02;88.53;;;26.63;;
72319;SDS011;60269;52.502;16.732;2022-12-05T19:46:43;82.90;;;26.38;;
72319;SDS011;60269;52.502;16.732;2022-12-05T19:50:18;92.17;;;26.03;;
72319;SDS011;60269;52.502;16.732;2022-12-05T19:53:50;83.57;;;26.45;;
72319;SDS011;60269;52.502;16.732;2022-12-05T19:57:22;92.43;;;26.90;;
72319;SDS011;60269;52.502;16.732;2022-12-05T20:00:54;83.17;;;26.17;;
72319;SDS011;60269;52.502;16.732;2022-12-05T20:04:26;82.97;;;27.73;;
72319;SDS011;60269;52.502;16.732;2022-12-05T20:07:58;90.15;;;28.45;;
72319;SDS011;60269;52.502;16.732;2022-12-05T20:11:31;79.47;;;26.83;;
72319;SDS011;60269;52.502;16.732;2022-12-05T20:15:03;84.90;;;28.23;;
72319;SDS011;60269;52.502;16.732;2022-12-05T20:18:36;86.47;;;27.95;;
72319;SDS011;60269;52.502;16.732;2022-12-05T20:22:10;94.05;;;29.52;;
72319;SDS011;60269;52.502;16.732;2022-12-05T20:25:42;85.70;;;28.70;;
72319;SDS011;60269;52.502;16.732;2022-12-05T20:29:15;89.30;;;28.27;;
72319;SDS011;60269;52.502;16.732;2022-12-05T20:32:47;85.85;;;26.13;;
72319;SDS011;60269;52.502;16.732;2022-12-05T20:36:21;80.93;;;26.37;;
72319;SDS011;60269;52.502;16.732;2022-12-05T20:39:55;90.45;;;27.13;;
72319;SDS011;60269;52.502;16.732;2022-12-05T20:43:27;78.28;;;25.65;;
72319;SDS011;60269;52.502;16.732;2022-12-05T20:46:59;77.57;;;27.97;;
72319;SDS011;60269;52.502;16.732;2022-12-05T20:50:32;77.90;;;27.38;;
72319;SDS011;60269;52.502;16.732;2022-12-05T20:54:05;91.85;;;27.38;;
72319;SDS011;60269;52.502;16.732;2022-12-05T20:57:37;71.65;;;24.45;;
72319;SDS011;60269;52.502;16.732;2022-12-05T21:01:13;86.23;;;27.57;;
72319;SDS011;60269;52.502;16.732;2022-12-05T21:04:46;80.85;;;28.00;;
72319;SDS011;60269;52.502;16.732;2022-12-05T21:08:18;87.40;;;27.67;;
72319;SDS011;60269;52.502;16.732;2022-12-05T21:11:50;85.77;;;28.90;;
72319;SDS011;60269;52.502;16.732;2022-12-05T21:15:22;90.75;;;28.63;;
72319;SDS011;60269;52.502;16.732;2022-12-05T21:18:55;84.55;;;27.75;;
72319;SDS011;60269;52.502;16.732;2022-12-05T21:22:29;92.77;;;28.03;;
72319;SDS011;60269;52.502;16.732;2022-12-05T21:26:05;98.80;;;28.48;;
72319;SDS011;60269;52.502;16.732;2022-12-05T21:29:38;93.43;;;29.08;;
72319;SDS011;60269;52.502;16.732;2022-12-05T21:33:10;102.45;;;29.10;;
72319;SDS011;60269;52.502;16.732;2022-12-05T21:36:42;97.93;;;29.63;;
72319;SDS011;60269;52.502;16.732;2022-12-05T21:40:15;92.60;;;28.85;;
72319;SDS011;60269;52.502;16.732;2022-12-05T21:43:47;110.38;;;32.13;;
72319;SDS011;60269;52.502;16.732;2022-12-05T21:47:26;89.83;;;29.50;;
72319;SDS011;60269;52.502;16.732;2022-12-05T21:50:59;115.03;;;32.10;;
72319;SDS011;60269;52.502;16.732;2022-12-05T21:54:31;114.18;;;32.63;;
72319;SDS011;60269;52.502;16.732;2022-12-05T21:58:03;105.40;;;31.73;;
72319;SDS011;60269;52.502;16.732;2022-12-05T22:01:35;106.38;;;31.98;;
72319;SDS011;60269;52.502;16.732;2022-12-05T22:05:07;92.40;;;30.42;;
72319;SDS011;60269;52.502;16.732;2022-12-05T22:08:39;95.05;;;32.15;;
72319;SDS011;60269;52.502;16.732;2022-12-05T22:12:11;109.67;;;32.37;;
72319;SDS011;60269;52.502;16.732;2022-12-05T22:15:42;95.45;;;30.15;;
72319;SDS011;60269;52.502;16.732;2022-12-05T22:19:14;93.50;;;29.85;;
72319;SDS011;60269;52.502;16.732;2022-12-05T22:22:46;103.87;;;32.80;;
72319;SDS011;60269;52.502;16.732;2022-12-05T22:26:19;97.78;;;32.13;;
72319;SDS011;60269;52.502;16.732;2022-12-05T22:29:52;80.55;;;26.52;;
72319;SDS011;60269;52.502;16.732;2022-12-05T22:33:25;84.70;;;28.30;;
72319;SDS011;60269;52.502;16.732;2022-12-05T22:36:57;87.00;;;26.25;;
72319;SDS011;60269;52.502;16.732;2022-12-05T22:40:29;92.72;;;29.50;;